sensor_id;sensor_type;location;lat;lon;timestamp;pressure;altitude;pressure_sealevel;temperature;humidity
75775;BME280;64505;51.458;7.556;2023-03-01T00:00:34;101154.19;;;-2.25;77.43
75775;BME280;64505;51.458;7.556;2023-03-01T00:02:35;101150.56;;;-2.23;76.23
75775;BME280;64505;51.458;7.556;2023-03-01T00:04:37;101145.59;;;-2.26;75.81
75775;BME280;64505;51.458;7.556;2023-03-01T00:06:39;101143.22;;;-2.29;75.90
75775;BME280;64505;51.458;7.556;2023-03-01T00:08:41;101137.19;;;-2.29;76.18
75775;BME280;64505;51.458;7.556;2023-03-01T00:10:43;101137.19;;;-2.29;76.37
75775;BME280;64505;51.458;7.556;2023-03-01T00:12:44;101131.09;;;-2.28;76.31
75775;BME280;64505;51.458;7.556;2023-03-01T00:14:45;101133.69;;;-2.28;76.44
75775;BME280;64505;51.458;7.556;2023-03-01T00:16:47;101133.88;;;-2.31;76.48
75775;BME280;64505;51.458;7.556;2023-03-01T00:18:49;101134.91;;;-2.34;75.94
75775;BME280;64505;51.458;7.556;2023-03-01T00:20:54;101141.03;;;-2.35;76.04
75775;BME280;64505;51.458;7.556;2023-03-01T00:22:56;101131.50;;;-2.34;76.56
75775;BME280;64505;51.458;7.556;2023-03-01T00:24:57;101128.91;;;-2.34;76.00
75775;BME280;64505;51.458;7.556;2023-03-01T00:26:59;101134.09;;;-2.34;75.89
75775;BME280;64505;51.458;7.556;2023-03-01T00:29:00;101123.63;;;-2.33;76.81
75775;BME280;64505;51.458;7.556;2023-03-01T00:31:07;101125.47;;;-2.35;76.52
75775;BME280;64505;51.458;7.556;2023-03-01T00:33:09;101120.28;;;-2.35;76.06
75775;BME280;64505;51.458;7.556;2023-03-01T00:35:11;101128.28;;;-2.38;75.97
75775;BME280;64505;51.458;7.556;2023-03-01T00:37:12;101125.69;;;-2.38;75.64
75775;BME280;64505;51.458;7.556;2023-03-01T00:39:14;101118.06;;;-2.39;76.02
75775;BME280;64505;51.458;7.556;2023-03-01T00:41:18;101115.47;;;-2.39;75.55
75775;BME280;64505;51.458;7.556;2023-03-01T00:43:19;101114.84;;;-2.43;75.29
75775;BME280;64505;51.458;7.556;2023-03-01T00:45:21;101108.91;;;-2.45;75.48
75775;BME280;64505;51.458;7.556;2023-03-01T00:47:23;101110.69;;;-2.45;75.67
75775;BME280;64505;51.458;7.556;2023-03-01T00:49:24;101121.25;;;-2.49;75.49
75775;BME280;64505;51.458;7.556;2023-03-01T00:51:29;101112.88;;;-2.52;75.90
75775;BME280;64505;51.458;7.556;2023-03-01T00:53:30;101114.75;;;-2.54;75.75
75775;BME280;64505;51.458;7.556;2023-03-01T00:55:32;101094.88;;;-2.54;75.79
75775;BME280;64505;51.458;7.556;2023-03-01T00:57:33;101094.13;;;-2.56;75.40
75775;BME280;64505;51.458;7.556;2023-03-01T00:59:35;101094.97;;;-2.55;75.67
75775;BME280;64505;51.458;7.556;2023-03-01T01:01:36;101093.50;;;-2.59;75.40
75775;BME280;64505;51.458;7.556;2023-03-01T01:03:38;101097.13;;;-2.62;75.35
75775;BME280;64505;51.458;7.556;2023-03-01T01:05:39;101091.22;;;-2.64;75.63
75775;BME280;64505;51.458;7.556;2023-03-01T01:07:41;101100.16;;;-2.68;75.63
75775;BME280;64505;51.458;7.556;2023-03-01T01:09:42;101089.06;;;-2.70;75.25
75775;BME280;64505;51.458;7.556;2023-03-01T01:11:49;101089.28;;;-2.73;75.44
75775;BME280;64505;51.458;7.556;2023-03-01T01:13:51;101091.13;;;-2.75;75.99
75775;BME280;64505;51.458;7.556;2023-03-01T01:15:52;101081.94;;;-2.79;76.53
75775;BME280;64505;51.458;7.556;2023-03-01T01:17:53;101079.75;;;-2.85;76.70
75775;BME280;64505;51.458;7.556;2023-03-01T01:19:55;101087.63;;;-2.86;77.33
75775;BME280;64505;51.458;7.556;2023-03-01T01:21:57;101090.50;;;-2.91;77.34
75775;BME280;64505;51.458;7.556;2023-03-01T01:23:58;101087.00;;;-2.90;77.57
75775;BME280;64505;51.458;7.556;2023-03-01T01:26:05;101093.19;;;-2.92;77.41
75775;BME280;64505;51.458;7.556;2023-03-01T01:28:06;101079.00;;;-3.00;77.21
75775;BME280;64505;51.458;7.556;2023-03-01T01:30:08;101080.13;;;-3.04;77.61
75775;BME280;64505;51.458;7.556;2023-03-01T01:32:10;101078.50;;;-3.05;78.21
75775;BME280;64505;51.458;7.556;2023-03-01T01:34:20;101087.91;;;-3.04;79.02
75775;BME280;64505;51.458;7.556;2023-03-01T01:36:22;101090.81;;;-3.08;78.17
75775;BME280;64505;51.458;7.556;2023-03-01T01:38:24;101087.47;;;-3.10;78.14
75775;BME280;64505;51.458;7.556;2023-03-01T01:40:25;101087.81;;;-3.15;77.62
75775;BME280;64505;51.458;7.556;2023-03-01T01:42:27;101081.06;;;-3.17;77.62
75775;BME280;64505;51.458;7.556;2023-03-01T01:44:29;101083.66;;;-3.17;78.17
75775;BME280;64505;51.458;7.556;2023-03-01T01:46:32;101084.47;;;-3.17;78.62
75775;BME280;64505;51.458;7.556;2023-03-01T01:48:42;101086.34;;;-3.19;78.83
75775;BME280;64505;51.458;7.556;2023-03-01T01:50:44;101086.44;;;-3.20;78.47
75775;BME280;64505;51.458;7.556;2023-03-01T01:52:50;101077.84;;;-3.21;78.41
75775;BME280;64505;51.458;7.556;2023-03-01T01:55:40;101075.19;;;-3.19;78.30
75775;BME280;64505;51.458;7.556;2023-03-01T01:57:42;101069.25;;;-3.21;77.88
75775;BME280;64505;51.458;7.556;2023-03-01T01:59:53;101055.69;;;-3.25;77.27
75775;BME280;64505;51.458;7.556;2023-03-01T02:01:57;101063.25;;;-3.22;78.12
75775;BME280;64505;51.458;7.556;2023-03-01T02:04:01;101059.03;;;-3.23;78.57
75775;BME280;64505;51.458;7.556;2023-03-01T02:06:31;101057.38;;;-3.24;78.32
75775;BME280;64505;51.458;7.556;2023-03-01T02:08:36;101046.31;;;-3.26;78.17
75775;BME280;64505;51.458;7.556;2023-03-01T02:10:40;101054.06;;;-3.26;77.99
75775;BME280;64505;51.458;7.556;2023-03-01T02:12:41;101057.44;;;-3.25;78.81
75775;BME280;64505;51.458;7.556;2023-03-01T02:14:43;101052.28;;;-3.25;78.38
75775;BME280;64505;51.458;7.556;2023-03-01T02:16:46;101046.94;;;-3.22;79.15
75775;BME280;64505;51.458;7.556;2023-03-01T02:18:47;101052.81;;;-3.20;79.00
75775;BME280;64505;51.458;7.556;2023-03-01T02:23:07;101046.81;;;-3.21;78.72
75775;BME280;64505;51.458;7.556;2023-03-01T02:27:22;101035.25;;;-3.15;79.32
75775;BME280;64505;51.458;7.556;2023-03-01T02:29:28;101040.59;;;-3.18;78.92
75775;BME280;64505;51.458;7.556;2023-03-01T02:31:29;101040.59;;;-3.18;78.55
75775;BME280;64505;51.458;7.556;2023-03-01T02:33:44;101039.88;;;-3.20;78.14
75775;BME280;64505;51.458;7.556;2023-03-01T02:35:46;101043.50;;;-3.23;78.28
75775;BME280;64505;51.458;7.556;2023-03-01T02:37:48;101036.66;;;-3.24;78.84
75775;BME280;64505;51.458;7.556;2023-03-01T02:39:53;101041.00;;;-3.24;78.71
75775;BME280;64505;51.458;7.556;2023-03-01T02:41:58;101044.72;;;-3.28;78.35
75775;BME280;64505;51.458;7.556;2023-03-01T02:44:02;101045.78;;;-3.31;77.79
75775;BME280;64505;51.458;7.556;2023-03-01T02:46:07;101049.19;;;-3.30;78.05
75775;BME280;64505;51.458;7.556;2023-03-01T02:48:09;101048.44;;;-3.32;78.22
75775;BME280;64505;51.458;7.556;2023-03-01T02:53:07;101045.16;;;-3.34;78.35
75775;BME280;64505;51.458;7.556;2023-03-01T02:55:16;101045.22;;;-3.36;78.94
75775;BME280;64505;51.458;7.556;2023-03-01T02:57:18;101047.09;;;-3.38;78.66
75775;BME280;64505;51.458;7.556;2023-03-01T02:59:22;101040.47;;;-3.42;77.93
75775;BME280;64505;51.458;7.556;2023-03-01T03:01:26;101044.09;;;-3.44;78.32
75775;BME280;64505;51.458;7.556;2023-03-01T03:03:37;101036.56;;;-3.47;78.38
75775;BME280;64505;51.458;7.556;2023-03-01T03:05:38;101034.06;;;-3.49;78.15
75775;BME280;64505;51.458;7.556;2023-03-01T03:07:42;101036.00;;;-3.53;78.47
75775;BME280;64505;51.458;7.556;2023-03-01T03:09:44;101032.72;;;-3.55;78.78
75775;BME280;64505;51.458;7.556;2023-03-01T03:11:45;101035.38;;;-3.56;78.66
75775;BME280;64505;51.458;7.556;2023-03-01T03:13:47;101033.72;;;-3.57;78.44
75775;BME280;64505;51.458;7.556;2023-03-01T03:15:49;101028.03;;;-3.62;78.40
75775;BME280;64505;51.458;7.556;2023-03-01T03:17:51;101031.63;;;-3.65;78.26
75775;BME280;64505;51.458;7.556;2023-03-01T03:19:53;101024.06;;;-3.68;78.64
75775;BME280;64505;51.458;7.556;2023-03-01T03:21:55;101025.00;;;-3.69;78.09
75775;BME280;64505;51.458;7.556;2023-03-01T03:23:56;101024.19;;;-3.69;78.46
75775;BME280;64505;51.458;7.556;2023-03-01T03:25:59;101028.75;;;-3.73;78.96
75775;BME280;64505;51.458;7.556;2023-03-01T03:28:01;101030.50;;;-3.73;78.97
75775;BME280;64505;51.458;7.556;2023-03-01T03:30:02;101031.59;;;-3.77;78.67
75775;BME280;64505;51.458;7.556;2023-03-01T03:32:04;101028.28;;;-3.79;78.85
75775;BME280;64505;51.458;7.556;2023-03-01T03:34:05;101024.16;;;-3.82;78.98
75775;BME280;64505;51.458;7.556;2023-03-01T03:36:07;101024.34;;;-3.85;79.13
75775;BME280;64505;51.458;7.556;2023-03-01T03:38:16;101025.19;;;-3.84;79.00
75775;BME280;64505;51.458;7.556;2023-03-01T03:40:18;101023.72;;;-3.88;79.12
75775;BME280;64505;51.458;7.556;2023-03-01T03:42:21;101015.34;;;-3.92;78.94
75775;BME280;64505;51.458;7.556;2023-03-01T03:44:23;101005.28;;;-3.97;79.26
75775;BME280;64505;51.458;7.556;2023-03-01T03:46:24;100999.41;;;-3.99;79.50
75775;BME280;64505;51.458;7.556;2023-03-01T03:48:27;101000.59;;;-4.04;78.93
75775;BME280;64505;51.458;7.556;2023-03-01T03:50:28;100997.94;;;-4.03;79.37
75775;BME280;64505;51.458;7.556;2023-03-01T03:52:30;100990.47;;;-4.07;79.87
75775;BME280;64505;51.458;7.556;2023-03-01T03:54:31;100994.72;;;-4.06;80.99
75775;BME280;64505;51.458;7.556;2023-03-01T03:56:33;100995.22;;;-4.14;80.39
75775;BME280;64505;51.458;7.556;2023-03-01T03:58:35;100989.28;;;-4.16;80.00
75775;BME280;64505;51.458;7.556;2023-03-01T04:00:41;100981.75;;;-4.19;79.69
75775;BME280;64505;51.458;7.556;2023-03-01T04:02:44;100983.50;;;-4.19;79.85
75775;BME280;64505;51.458;7.556;2023-03-01T04:04:45;100983.91;;;-4.25;79.70
75775;BME280;64505;51.458;7.556;2023-03-01T04:06:47;100990.72;;;-4.24;80.64
75775;BME280;64505;51.458;7.556;2023-03-01T04:08:49;100999.59;;;-4.28;80.69
75775;BME280;64505;51.458;7.556;2023-03-01T04:10:56;101004.84;;;-4.30;80.12
75775;BME280;64505;51.458;7.556;2023-03-01T04:12:58;101006.69;;;-4.32;80.06
75775;BME280;64505;51.458;7.556;2023-03-01T04:15:00;101011.31;;;-4.37;79.41
75775;BME280;64505;51.458;7.556;2023-03-01T04:17:02;101011.31;;;-4.37;80.86
75775;BME280;64505;51.458;7.556;2023-03-01T04:19:06;101013.19;;;-4.39;80.55
75775;BME280;64505;51.458;7.556;2023-03-01T04:21:07;101016.59;;;-4.38;80.87
75775;BME280;64505;51.458;7.556;2023-03-01T04:23:11;101015.84;;;-4.40;81.54
75775;BME280;64505;51.458;7.556;2023-03-01T04:25:17;101014.28;;;-4.43;81.31
75775;BME280;64505;51.458;7.556;2023-03-01T04:27:19;101010.16;;;-4.45;81.13
75775;BME280;64505;51.458;7.556;2023-03-01T04:29:20;101008.50;;;-4.47;80.44
75775;BME280;64505;51.458;7.556;2023-03-01T04:31:21;101011.06;;;-4.47;80.77
75775;BME280;64505;51.458;7.556;2023-03-01T04:33:24;101014.75;;;-4.51;80.57
75775;BME280;64505;51.458;7.556;2023-03-01T04:35:26;101009.69;;;-4.52;80.17
75775;BME280;64505;51.458;7.556;2023-03-01T04:37:29;101013.00;;;-4.50;80.20
75775;BME280;64505;51.458;7.556;2023-03-01T04:39:30;101014.03;;;-4.53;80.14
75775;BME280;64505;51.458;7.556;2023-03-01T04:41:32;101003.78;;;-4.54;81.38
75775;BME280;64505;51.458;7.556;2023-03-01T04:43:34;101006.47;;;-4.56;81.45
75775;BME280;64505;51.458;7.556;2023-03-01T04:45:36;101004.00;;;-4.57;81.23
75775;BME280;64505;51.458;7.556;2023-03-01T04:47:38;101001.41;;;-4.57;80.44
75775;BME280;64505;51.458;7.556;2023-03-01T04:49:39;101000.56;;;-4.58;81.30
75775;BME280;64505;51.458;7.556;2023-03-01T04:51:41;100998.00;;;-4.58;81.63
75775;BME280;64505;51.458;7.556;2023-03-01T04:53:43;101005.81;;;-4.59;81.53
75775;BME280;64505;51.458;7.556;2023-03-01T04:55:44;101006.13;;;-4.64;80.95
75775;BME280;64505;51.458;7.556;2023-03-01T04:57:46;101004.47;;;-4.65;81.34
75775;BME280;64505;51.458;7.556;2023-03-01T04:59:47;101004.53;;;-4.66;81.52
75775;BME280;64505;51.458;7.556;2023-03-01T05:01:49;101005.56;;;-4.69;80.72
75775;BME280;64505;51.458;7.556;2023-03-01T05:03:51;101004.66;;;-4.68;80.68
75775;BME280;64505;51.458;7.556;2023-03-01T05:05:53;101000.41;;;-4.69;81.66
75775;BME280;64505;51.458;7.556;2023-03-01T05:07:57;101006.47;;;-4.70;81.73
75775;BME280;64505;51.458;7.556;2023-03-01T05:09:58;101004.94;;;-4.72;82.12
75775;BME280;64505;51.458;7.556;2023-03-01T05:12:00;101008.34;;;-4.72;81.62
75775;BME280;64505;51.458;7.556;2023-03-01T05:14:02;101010.09;;;-4.72;81.71
75775;BME280;64505;51.458;7.556;2023-03-01T05:16:05;101006.59;;;-4.71;82.67
75775;BME280;64505;51.458;7.556;2023-03-01T05:18:07;101010.09;;;-4.72;81.76
75775;BME280;64505;51.458;7.556;2023-03-01T05:20:12;101005.00;;;-4.74;81.05
75775;BME280;64505;51.458;7.556;2023-03-01T05:22:14;101005.94;;;-4.75;82.46
75775;BME280;64505;51.458;7.556;2023-03-01T05:24:15;101003.56;;;-4.78;82.10
75775;BME280;64505;51.458;7.556;2023-03-01T05:26:18;100995.00;;;-4.78;81.43
75775;BME280;64505;51.458;7.556;2023-03-01T05:28:39;100987.34;;;-4.80;80.84
75775;BME280;64505;51.458;7.556;2023-03-01T05:30:41;100989.84;;;-4.78;81.72
75775;BME280;64505;51.458;7.556;2023-03-01T05:32:46;100989.91;;;-4.80;82.30
75775;BME280;64505;51.458;7.556;2023-03-01T05:34:48;100982.16;;;-4.80;81.65
75775;BME280;64505;51.458;7.556;2023-03-01T05:36:49;100983.84;;;-4.79;82.41
75775;BME280;64505;51.458;7.556;2023-03-01T05:38:54;100979.41;;;-4.77;82.70
75775;BME280;64505;51.458;7.556;2023-03-01T05:40:56;100980.50;;;-4.81;81.20
75775;BME280;64505;51.458;7.556;2023-03-01T05:42:58;100990.03;;;-4.81;82.78
75775;BME280;64505;51.458;7.556;2023-03-01T05:44:59;100994.44;;;-4.83;82.68
75775;BME280;64505;51.458;7.556;2023-03-01T05:47:00;100989.19;;;-4.82;83.45
75775;BME280;64505;51.458;7.556;2023-03-01T05:49:02;100987.53;;;-4.83;82.67
75775;BME280;64505;51.458;7.556;2023-03-01T05:51:04;100992.69;;;-4.83;83.27
75775;BME280;64505;51.458;7.556;2023-03-01T05:53:13;100992.75;;;-4.84;82.24
75775;BME280;64505;51.458;7.556;2023-03-01T05:55:20;100993.72;;;-4.85;82.01
75775;BME280;64505;51.458;7.556;2023-03-01T05:57:22;100991.13;;;-4.85;81.92
75775;BME280;64505;51.458;7.556;2023-03-01T05:59:23;100996.38;;;-4.87;81.31
75775;BME280;64505;51.458;7.556;2023-03-01T06:01:25;100993.72;;;-4.85;81.86
75775;BME280;64505;51.458;7.556;2023-03-01T06:03:26;100991.13;;;-4.85;81.38
75775;BME280;64505;51.458;7.556;2023-03-01T06:05:28;100983.38;;;-4.85;81.21
75775;BME280;64505;51.458;7.556;2023-03-01T06:07:30;100990.94;;;-4.82;81.70
75775;BME280;64505;51.458;7.556;2023-03-01T06:09:31;100988.25;;;-4.81;82.02
75775;BME280;64505;51.458;7.556;2023-03-01T06:11:36;100995.91;;;-4.79;82.32
75775;BME280;64505;51.458;7.556;2023-03-01T06:13:37;100997.66;;;-4.80;81.62
75775;BME280;64505;51.458;7.556;2023-03-01T06:15:39;100992.50;;;-4.80;81.65
75775;BME280;64505;51.458;7.556;2023-03-01T06:17:42;100993.25;;;-4.78;81.43
75775;BME280;64505;51.458;7.556;2023-03-01T06:19:44;100990.56;;;-4.76;81.29
75775;BME280;64505;51.458;7.556;2023-03-01T06:21:45;100997.47;;;-4.77;81.66
75775;BME280;64505;51.458;7.556;2023-03-01T06:23:46;100999.13;;;-4.76;82.05
75775;BME280;64505;51.458;7.556;2023-03-01T06:25:48;100999.84;;;-4.74;80.98
75775;BME280;64505;51.458;7.556;2023-03-01T06:27:50;100993.69;;;-4.71;82.39
75775;BME280;64505;51.458;7.556;2023-03-01T06:29:53;100993.56;;;-4.70;82.16
75775;BME280;64505;51.458;7.556;2023-03-01T06:31:55;100988.97;;;-4.65;81.99
75775;BME280;64505;51.458;7.556;2023-03-01T06:33:56;100992.19;;;-4.61;82.24
75775;BME280;64505;51.458;7.556;2023-03-01T06:35:57;101002.25;;;-4.57;82.26
75775;BME280;64505;51.458;7.556;2023-03-01T06:38:01;100991.88;;;-4.42;81.00
75775;BME280;64505;51.458;7.556;2023-03-01T06:40:04;100983.81;;;-4.24;80.76
75775;BME280;64505;51.458;7.556;2023-03-01T06:42:09;100995.06;;;-4.25;81.65
75775;BME280;64505;51.458;7.556;2023-03-01T06:44:13;100979.97;;;-4.31;81.88
75775;BME280;64505;51.458;7.556;2023-03-01T06:46:15;100973.22;;;-4.33;82.28
75775;BME280;64505;51.458;7.556;2023-03-01T06:48:16;100972.94;;;-4.29;81.34
75775;BME280;64505;51.458;7.556;2023-03-01T06:50:18;100979.81;;;-4.15;81.04
75775;BME280;64505;51.458;7.556;2023-03-01T06:52:20;100978.69;;;-4.11;80.86
75775;BME280;64505;51.458;7.556;2023-03-01T06:54:21;100967.91;;;-4.18;80.95
75775;BME280;64505;51.458;7.556;2023-03-01T06:56:23;100969.47;;;-4.15;81.79
75775;BME280;64505;51.458;7.556;2023-03-01T06:58:25;100965.13;;;-4.15;81.50
75775;BME280;64505;51.458;7.556;2023-03-01T07:00:26;100972.88;;;-4.15;80.90
75775;BME280;64505;51.458;7.556;2023-03-01T07:02:28;100972.69;;;-4.12;81.33
75775;BME280;64505;51.458;7.556;2023-03-01T07:04:29;100973.31;;;-4.08;81.38
75775;BME280;64505;51.458;7.556;2023-03-01T07:06:31;100974.78;;;-4.04;80.68
75775;BME280;64505;51.458;7.556;2023-03-01T07:08:33;100976.34;;;-4.02;80.47
75775;BME280;64505;51.458;7.556;2023-03-01T07:10:34;100970.03;;;-3.98;80.76
75775;BME280;64505;51.458;7.556;2023-03-01T07:12:36;100974.91;;;-3.93;81.28
75775;BME280;64505;51.458;7.556;2023-03-01T07:14:38;100974.72;;;-3.90;81.28
75775;BME280;64505;51.458;7.556;2023-03-01T07:16:39;100972.56;;;-3.83;81.63
75775;BME280;64505;51.458;7.556;2023-03-01T07:18:41;100966.38;;;-3.81;82.57
75775;BME280;64505;51.458;7.556;2023-03-01T07:20:42;100967.72;;;-3.75;81.92
75775;BME280;64505;51.458;7.556;2023-03-01T07:22:44;100972.69;;;-3.72;81.91
75775;BME280;64505;51.458;7.556;2023-03-01T07:24:45;100967.00;;;-3.65;81.17
75775;BME280;64505;51.458;7.556;2023-03-01T07:26:49;100969.38;;;-3.62;81.28
75775;BME280;64505;51.458;7.556;2023-03-01T07:28:51;100972.28;;;-3.54;81.00
75775;BME280;64505;51.458;7.556;2023-03-01T07:30:52;100959.06;;;-3.49;81.38
75775;BME280;64505;51.458;7.556;2023-03-01T07:32:55;100956.28;;;-3.46;81.26
75775;BME280;64505;51.458;7.556;2023-03-01T07:34:57;100955.06;;;-3.40;81.13
75775;BME280;64505;51.458;7.556;2023-03-01T07:36:59;100946.03;;;-3.35;81.21
75775;BME280;64505;51.458;7.556;2023-03-01T07:39:00;100948.13;;;-3.27;81.60
75775;BME280;64505;51.458;7.556;2023-03-01T07:41:03;100950.41;;;-3.23;80.95
75775;BME280;64505;51.458;7.556;2023-03-01T07:43:06;100940.53;;;-3.18;80.54
75775;BME280;64505;51.458;7.556;2023-03-01T07:45:08;100944.50;;;-3.12;80.74
75775;BME280;64505;51.458;7.556;2023-03-01T07:47:10;100945.72;;;-3.05;80.24
75775;BME280;64505;51.458;7.556;2023-03-01T07:49:11;100943.53;;;-2.99;80.10
75775;BME280;64505;51.458;7.556;2023-03-01T07:51:13;100949.31;;;-2.95;80.27
75775;BME280;64505;51.458;7.556;2023-03-01T07:53:22;100953.13;;;-2.88;79.64
75775;BME280;64505;51.458;7.556;2023-03-01T07:55:23;100948.47;;;-2.83;79.56
75775;BME280;64505;51.458;7.556;2023-03-01T07:57:25;100955.72;;;-2.75;80.05
75775;BME280;64505;51.458;7.556;2023-03-01T07:59:26;100946.78;;;-2.71;79.29
75775;BME280;64505;51.458;7.556;2023-03-01T08:01:30;100950.63;;;-2.64;78.10
75775;BME280;64505;51.458;7.556;2023-03-01T08:03:32;100951.84;;;-2.57;79.07
75775;BME280;64505;51.458;7.556;2023-03-01T08:05:37;100951.38;;;-2.51;79.91
75775;BME280;64505;51.458;7.556;2023-03-01T08:07:39;100947.53;;;-2.45;78.58
75775;BME280;64505;51.458;7.556;2023-03-01T08:09:40;100944.38;;;-2.38;79.00
75775;BME280;64505;51.458;7.556;2023-03-01T08:11:42;100944.78;;;-2.31;78.54
75775;BME280;64505;51.458;7.556;2023-03-01T08:13:44;100949.63;;;-2.27;78.66
75775;BME280;64505;51.458;7.556;2023-03-01T08:15:45;100946.63;;;-2.21;77.98
75775;BME280;64505;51.458;7.556;2023-03-01T08:17:49;100949.44;;;-2.13;77.63
75775;BME280;64505;51.458;7.556;2023-03-01T08:19:51;100944.78;;;-2.08;77.74
75775;BME280;64505;51.458;7.556;2023-03-01T08:21:52;100952.81;;;-2.00;77.99
75775;BME280;64505;51.458;7.556;2023-03-01T08:23:54;100942.00;;;-1.93;77.95
75775;BME280;64505;51.458;7.556;2023-03-01T08:26:03;100948.47;;;-1.88;77.44
75775;BME280;64505;51.458;7.556;2023-03-01T08:28:05;100943.56;;;-1.80;77.12
75775;BME280;64505;51.458;7.556;2023-03-01T08:30:07;100950.91;;;-1.74;77.13
75775;BME280;64505;51.458;7.556;2023-03-01T08:32:09;100947.63;;;-1.65;77.34
75775;BME280;64505;51.458;7.556;2023-03-01T08:34:13;100943.03;;;-1.61;77.03
75775;BME280;64505;51.458;7.556;2023-03-01T08:36:17;100938.81;;;-1.51;77.05
75775;BME280;64505;51.458;7.556;2023-03-01T08:38:18;100936.56;;;-1.44;76.89
75775;BME280;64505;51.458;7.556;2023-03-01T08:40:20;100941.91;;;-1.35;76.57
75775;BME280;64505;51.458;7.556;2023-03-01T08:42:21;100935.31;;;-1.28;76.12
75775;BME280;64505;51.458;7.556;2023-03-01T08:44:23;100938.25;;;-1.21;76.29
75775;BME280;64505;51.458;7.556;2023-03-01T08:46:29;100939.19;;;-1.11;75.86
75775;BME280;64505;51.458;7.556;2023-03-01T08:48:31;100942.03;;;-1.03;77.10
75775;BME280;64505;51.458;7.556;2023-03-01T08:50:32;100940.50;;;-0.94;75.99
75775;BME280;64505;51.458;7.556;2023-03-01T08:52:34;100941.69;;;-0.87;76.18
75775;BME280;64505;51.458;7.556;2023-03-01T08:54:36;100943.44;;;-0.77;75.98
75775;BME280;64505;51.458;7.556;2023-03-01T08:56:38;100936.69;;;-0.68;75.83
75775;BME280;64505;51.458;7.556;2023-03-01T08:58:39;100933.47;;;-0.61;75.42
75775;BME280;64505;51.458;7.556;2023-03-01T09:00:41;100933.81;;;-0.54;74.78
75775;BME280;64505;51.458;7.556;2023-03-01T09:02:42;100928.75;;;-0.44;74.82
75775;BME280;64505;51.458;7.556;2023-03-01T09:04:44;100926.22;;;-0.35;74.18
75775;BME280;64505;51.458;7.556;2023-03-01T09:06:45;100928.19;;;-0.27;74.02
75775;BME280;64505;51.458;7.556;2023-03-01T09:08:48;100924.03;;;-0.19;73.73
75775;BME280;64505;51.458;7.556;2023-03-01T09:10:50;100921.06;;;-0.14;73.64
75775;BME280;64505;51.458;7.556;2023-03-01T09:12:51;100928.69;;;-0.02;73.80
75775;BME280;64505;51.458;7.556;2023-03-01T09:14:53;100925.59;;;0.05;73.06
75775;BME280;64505;51.458;7.556;2023-03-01T09:16:54;100924.13;;;0.12;73.16
75775;BME280;64505;51.458;7.556;2023-03-01T09:19:20;100920.78;;;0.21;72.77
75775;BME280;64505;51.458;7.556;2023-03-01T09:21:23;100918.50;;;0.27;72.89
75775;BME280;64505;51.458;7.556;2023-03-01T09:23:45;100911.56;;;0.37;72.56
75775;BME280;64505;51.458;7.556;2023-03-01T09:25:47;100911.50;;;0.48;72.61
75775;BME280;64505;51.458;7.556;2023-03-01T09:27:52;100901.41;;;0.55;71.82
75775;BME280;64505;51.458;7.556;2023-03-01T09:29:54;100896.75;;;0.59;71.48
75775;BME280;64505;51.458;7.556;2023-03-01T09:31:57;100891.78;;;0.76;71.03
75775;BME280;64505;51.458;7.556;2023-03-01T09:33:59;100904.13;;;0.84;70.26
75775;BME280;64505;51.458;7.556;2023-03-01T09:36:03;100899.81;;;0.94;70.86
75775;BME280;64505;51.458;7.556;2023-03-01T09:38:06;100887.19;;;0.99;70.62
75775;BME280;64505;51.458;7.556;2023-03-01T09:40:12;100878.34;;;1.11;68.99
75775;BME280;64505;51.458;7.556;2023-03-01T09:42:16;100877.78;;;1.17;68.73
75775;BME280;64505;51.458;7.556;2023-03-01T09:44:29;100865.59;;;1.27;68.60
75775;BME280;64505;51.458;7.556;2023-03-01T09:46:40;100857.66;;;1.29;67.74
75775;BME280;64505;51.458;7.556;2023-03-01T09:48:48;100865.22;;;1.41;68.59
75775;BME280;64505;51.458;7.556;2023-03-01T09:50:50;100857.41;;;1.51;66.28
75775;BME280;64505;51.458;7.556;2023-03-01T09:55:00;100867.97;;;1.69;65.80
75775;BME280;64505;51.458;7.556;2023-03-01T09:57:15;100869.75;;;1.68;64.94
75775;BME280;64505;51.458;7.556;2023-03-01T09:59:53;100869.66;;;1.70;65.24
75775;BME280;64505;51.458;7.556;2023-03-01T10:04:45;100876.06;;;1.94;65.21
75775;BME280;64505;51.458;7.556;2023-03-01T10:09:13;100876.34;;;1.91;64.26
75775;BME280;64505;51.458;7.556;2023-03-01T10:11:23;100871.41;;;1.98;64.56
75775;BME280;64505;51.458;7.556;2023-03-01T10:13:52;100881.97;;;2.06;64.70
75775;BME280;64505;51.458;7.556;2023-03-01T10:16:25;100867.94;;;2.07;64.34
75775;BME280;64505;51.458;7.556;2023-03-01T10:18:30;100888.09;;;2.24;65.36
75775;BME280;64505;51.458;7.556;2023-03-01T10:20:46;100880.00;;;2.18;63.63
75775;BME280;64505;51.458;7.556;2023-03-01T10:22:50;100870.53;;;2.26;64.72
75775;BME280;64505;51.458;7.556;2023-03-01T10:24:54;100874.63;;;2.38;65.34
75775;BME280;64505;51.458;7.556;2023-03-01T10:26:58;100865.81;;;2.49;64.78
75775;BME280;64505;51.458;7.556;2023-03-01T10:29:05;100867.72;;;2.47;64.68
75775;BME280;64505;51.458;7.556;2023-03-01T10:31:13;100858.34;;;2.54;64.21
75775;BME280;64505;51.458;7.556;2023-03-01T10:33:20;100849.97;;;2.51;64.59
75775;BME280;64505;51.458;7.556;2023-03-01T10:35:25;100858.03;;;2.67;64.25
75775;BME280;64505;51.458;7.556;2023-03-01T10:37:28;100854.13;;;2.80;64.06
75775;BME280;64505;51.458;7.556;2023-03-01T10:39:30;100849.63;;;2.73;63.90
75775;BME280;64505;51.458;7.556;2023-03-01T10:41:33;100846.88;;;2.74;63.41
75775;BME280;64505;51.458;7.556;2023-03-01T10:43:45;100841.16;;;2.88;63.52
75775;BME280;64505;51.458;7.556;2023-03-01T10:45:47;100839.91;;;2.92;63.62
75775;BME280;64505;51.458;7.556;2023-03-01T10:48:11;100833.88;;;2.92;62.74
75775;BME280;64505;51.458;7.556;2023-03-01T10:50:23;100835.28;;;3.04;63.41
75775;BME280;64505;51.458;7.556;2023-03-01T10:52:34;100834.00;;;3.18;62.91
75775;BME280;64505;51.458;7.556;2023-03-01T10:54:36;100831.75;;;3.23;62.12
75775;BME280;64505;51.458;7.556;2023-03-01T10:56:52;100821.38;;;3.31;62.78
75775;BME280;64505;51.458;7.556;2023-03-01T10:58:59;100821.06;;;3.34;62.88
75775;BME280;64505;51.458;7.556;2023-03-01T11:01:05;100819.88;;;3.46;62.69
75775;BME280;64505;51.458;7.556;2023-03-01T11:03:12;100811.81;;;3.57;63.29